Ivs Bosch Hoek — 9V3260 — position and weather

sailwx.info

Track history (hours):
 
Tides and Currents Weather Stations Pressure Air Temp Water Temp Dewpoint Dewpoint Depression Visibility Wind Speed Wind Dir Waves Ship Positions

Ivs Bosch Hoek

Last reported at 2018-Apr-24 09:18 UTC. Time now 2018-Apr-24 14:45 UTC.
Position N 42°36' E 032°43'.

Length 199 m; draft 6.7 m.

Type: Cargo ship. MMSI: 563290000.

Date/timePositionNaut miles runAvg speedWind from/ knotsBaromVisibWave heightAir tempDewpointWater temp
2018-Apr-24 09:18N 42°36' E 032°43'0 0.2
2018-Apr-24 08:17N 42°35' E 032°43'0 0.2
2018-Apr-24 07:59N 42°35' E 032°43'0 0.1
2018-Apr-24 04:40N 42°35' E 032°42'0 0.2
2018-Apr-24 04:29N 42°35' E 032°42'0 0.2
2018-Apr-24 02:30N 42°35' E 032°42'0 0.3
2018-Apr-24 01:53N 42°35' E 032°42'0 0.4
2018-Apr-24 01:29N 42°34' E 032°42'331 6.5
2018-Apr-21 22:28N 40°01' E 026°12'1910.4
2018-Apr-21 20:39N 39°53' E 025°50'210.9
2018-Apr-21 20:30N 39°51' E 025°49'611.2
2018-Apr-21 19:58N 39°46' E 025°45'510.9
2018-Apr-21 19:29N 39°41' E 025°42'13411.1
2018-Apr-21 07:22N 37°44' E 024°18'4310.5
2018-Apr-21 03:18N 37°08' E 023°49'  
2018-Apr-18 19:15N 44°27' E 014°05'1912.5
2018-Apr-18 17:44N 44°45' E 014°06'35 0.9
2018-Apr-17 01:23N 45°19' E 014°24'25 8.9
2018-Apr-16 22:37N 44°55' E 014°14'110.3
2018-Apr-16 22:30N 44°54' E 014°13'510.4
2018-Apr-16 22:00N 44°50' E 014°09'612.2
2018-Apr-16 21:30N 44°45' E 014°04'511.0
2018-Apr-16 21:01N 44°41' E 013°58'612.5
2018-Apr-16 20:31N 44°41' E 013°49'612.4
2018-Apr-16 20:00N 44°41' E 013°40'612.4
2018-Apr-16 19:30N 44°42' E 013°31'611.3
2018-Apr-16 19:00N 44°46' E 013°26'612.4
2018-Apr-16 18:31N 44°51' E 013°21'612.4
2018-Apr-16 18:01N 44°56' E 013°17'612.4
2018-Apr-16 17:30N 45°01' E 013°12'612.6
2018-Apr-16 17:00N 45°06' E 013°07'612.3
2018-Apr-16 16:30N 45°12' E 013°04'612.6
2018-Apr-16 16:00N 45°19' E 013°02'612.3
2018-Apr-16 15:31N 45°25' E 013°02'612.4
2018-Apr-16 15:01N 45°30' E 013°07'713.8
2018-Apr-16 14:30N 45°33' E 013°16'713.8
2018-Apr-16 14:00N 45°35' E 013°25'714.3
2018-Apr-16 13:30N 45°38' E 013°34'713.2
2018-Apr-16 13:00N 45°39' E 013°44'1 2.8
2018-Apr-16 12:30N 45°40' E 013°46'0 0.0
2018-Apr-16 11:57N 45°40' E 013°46'0 0.0
2018-Apr-16 11:27N 45°40' E 013°46'0 0.0
2018-Apr-16 10:54N 45°40' E 013°46'0 0.0
2018-Apr-16 10:30N 45°40' E 013°46'0 0.0
2018-Apr-16 10:00N 45°40' E 013°46'0 0.0
2018-Apr-16 09:30N 45°40' E 013°46'0 0.0
2018-Apr-16 09:00N 45°40' E 013°46'0 0.0
2018-Apr-16 08:30N 45°40' E 013°46'0 0.0
2018-Apr-16 07:54N 45°40' E 013°46'0 0.0
2018-Apr-16 07:30N 45°40' E 013°46'0 0.0
2018-Apr-16 06:51N 45°40' E 013°46'0 0.0
2018-Apr-16 06:21N 45°40' E 013°46'0 0.0
2018-Apr-16 06:00N 45°40' E 013°46'0 0.0
2018-Apr-16 05:30N 45°40' E 013°46'0 0.0
2018-Apr-16 04:51N 45°40' E 013°46'0 0.0
2018-Apr-16 04:24N 45°40' E 013°46'0 0.0
2018-Apr-16 03:57N 45°40' E 013°46'0 0.0
2018-Apr-16 03:27N 45°40' E 013°46'0 0.0
2018-Apr-16 03:00N 45°40' E 013°46'0 0.0
2018-Apr-16 02:30N 45°40' E 013°46'0 0.0
2018-Apr-16 01:57N 45°40' E 013°46'0 0.0
2018-Apr-16 01:18N 45°40' E 013°46'0 0.0
2018-Apr-16 00:57N 45°40' E 013°46'0 0.0
2018-Apr-16 00:30N 45°40' E 013°46'0 0.0
2018-Apr-15 23:57N 45°40' E 013°46'0 0.0
2018-Apr-15 23:30N 45°40' E 013°46'0 0.0
2018-Apr-15 23:00N 45°40' E 013°46'0 0.0
2018-Apr-15 22:27N 45°40' E 013°46'0 0.0
2018-Apr-15 22:00N 45°40' E 013°46'0 0.0
2018-Apr-15 21:24N 45°40' E 013°46'0 0.0
2018-Apr-15 21:00N 45°40' E 013°46'0 0.0
2018-Apr-15 20:27N 45°40' E 013°46'0 0.0
2018-Apr-15 19:57N 45°40' E 013°46'0 0.0
2018-Apr-15 19:30N 45°40' E 013°46'0 0.0
2018-Apr-15 18:57N 45°40' E 013°46'0 0.0
2018-Apr-15 18:30N 45°40' E 013°46'0 0.0
2018-Apr-15 18:00N 45°40' E 013°46'0 0.0
2018-Apr-15 17:27N 45°40' E 013°46'0 0.0
2018-Apr-15 17:00N 45°40' E 013°46'0 0.0
2018-Apr-15 16:30N 45°40' E 013°46'0 0.0
2018-Apr-15 16:00N 45°40' E 013°46'0 0.0
2018-Apr-15 15:30N 45°40' E 013°46'0 0.0
2018-Apr-15 15:00N 45°40' E 013°46'0 0.0
2018-Apr-15 14:30N 45°40' E 013°46'0 0.0
2018-Apr-15 14:00N 45°40' E 013°46'0 0.0
2018-Apr-15 13:24N 45°40' E 013°46'0 0.0
2018-Apr-15 13:00N 45°40' E 013°46'0 0.0
2018-Apr-15 12:30N 45°40' E 013°46'0 0.0
2018-Apr-15 11:54N 45°40' E 013°46'0 0.0
2018-Apr-15 11:27N 45°40' E 013°46'0 0.0
2018-Apr-15 10:51N 45°40' E 013°46'0 0.0
2018-Apr-15 10:30N 45°40' E 013°46'0 0.0
2018-Apr-15 09:57N 45°40' E 013°46'0 0.0
2018-Apr-15 09:30N 45°40' E 013°46'0 0.0
2018-Apr-15 08:57N 45°40' E 013°46'0 0.0
2018-Apr-15 08:30N 45°40' E 013°46'0 0.0
2018-Apr-15 07:48N 45°40' E 013°46'0 0.0
2018-Apr-15 07:30N 45°40' E 013°46'0 0.0
2018-Apr-15 07:00N 45°40' E 013°46'0 0.0
2018-Apr-15 06:27N 45°40' E 013°46'0 0.0
2018-Apr-15 06:00N 45°40' E 013°46'0 0.0
2018-Apr-15 05:30N 45°40' E 013°46'0 0.0
2018-Apr-15 04:45N 45°40' E 013°46'0 0.0
2018-Apr-15 04:27N 45°40' E 013°46'0 0.0
2018-Apr-15 04:00N 45°40' E 013°46'0 0.0
2018-Apr-15 03:27N 45°40' E 013°46'0 0.0
2018-Apr-15 02:57N 45°40' E 013°46'0 0.0
2018-Apr-15 02:24N 45°40' E 013°46'0 0.0
2018-Apr-15 02:00N 45°40' E 013°46'0 0.0
2018-Apr-15 01:30N 45°40' E 013°46'0 0.0
2018-Apr-15 01:00N 45°40' E 013°46'0 0.0
2018-Apr-15 00:30N 45°40' E 013°46'0 0.0
2018-Apr-15 00:00N 45°40' E 013°46'0 0.0
2018-Apr-14 23:30N 45°40' E 013°46'0 0.0
2018-Apr-14 23:00N 45°40' E 013°46'0 0.0
2018-Apr-14 22:27N 45°40' E 013°46'0 0.0
2018-Apr-14 21:57N 45°40' E 013°46'0 0.0
2018-Apr-14 21:27N 45°40' E 013°46'0 0.0
2018-Apr-14 21:00N 45°40' E 013°46'0 0.0
2018-Apr-14 20:15N 45°40' E 013°46'0 0.0
2018-Apr-14 19:54N 45°40' E 013°46'0 0.0
2018-Apr-14 19:30N 45°40' E 013°46'0 0.0
2018-Apr-14 19:00N 45°40' E 013°46'0 0.0
2018-Apr-14 18:30N 45°40' E 013°46'0 0.0
2018-Apr-14 18:00N 45°40' E 013°46'0 0.0
2018-Apr-14 17:24N 45°40' E 013°46'0 0.0
2018-Apr-14 17:00N 45°40' E 013°46'0 0.0
2018-Apr-14 16:30N 45°40' E 013°46'0 0.0
2018-Apr-14 15:54N 45°40' E 013°46'0 0.0
2018-Apr-14 15:30N 45°40' E 013°46'0 0.0
2018-Apr-14 15:00N 45°40' E 013°46'0 0.0
2018-Apr-14 14:30N 45°40' E 013°46'0 0.0
2018-Apr-14 13:54N 45°40' E 013°46'0 0.0
2018-Apr-14 13:27N 45°40' E 013°46'0 0.0
2018-Apr-14 12:54N 45°40' E 013°46'0 0.0
2018-Apr-14 12:30N 45°40' E 013°46'0 0.0
2018-Apr-14 12:00N 45°40' E 013°46'0 0.0
2018-Apr-14 11:24N 45°40' E 013°46'0 0.0
2018-Apr-14 11:00N 45°40' E 013°46'0 0.0
2018-Apr-14 10:30N 45°40' E 013°46'0 0.0
2018-Apr-14 10:00N 45°40' E 013°46'0 0.0
2018-Apr-14 09:30N 45°40' E 013°46'  
Track history (hours):
 
Tides and Currents Weather Stations Pressure Air Temp Water Temp Dewpoint Dewpoint Depression Visibility Wind Speed Wind Dir Waves Ship Positions

Ivs Bosch Hoek

Last reported at 2018-Apr-24 09:18 UTC. Time now 2018-Apr-24 14:45 UTC.
Position N 42°36' E 032°43'.

Length 199 m; draft 6.7 m.

Type: Cargo ship. MMSI: 563290000.

Date/timePositionNaut miles runAvg speedWind from/ knotsBaromVisibWave heightAir tempDewpointWater temp
2018-Apr-24 09:18N 42°36' E 032°43'0 0.2
2018-Apr-24 08:17N 42°35' E 032°43'0 0.2
2018-Apr-24 07:59N 42°35' E 032°43'0 0.1
2018-Apr-24 04:40N 42°35' E 032°42'0 0.2
2018-Apr-24 04:29N 42°35' E 032°42'0 0.2
2018-Apr-24 02:30N 42°35' E 032°42'0 0.3
2018-Apr-24 01:53N 42°35' E 032°42'0 0.4
2018-Apr-24 01:29N 42°34' E 032°42'331 6.5
2018-Apr-21 22:28N 40°01' E 026°12'1910.4
2018-Apr-21 20:39N 39°53' E 025°50'210.9
2018-Apr-21 20:30N 39°51' E 025°49'611.2
2018-Apr-21 19:58N 39°46' E 025°45'510.9
2018-Apr-21 19:29N 39°41' E 025°42'13411.1
2018-Apr-21 07:22N 37°44' E 024°18'4310.5
2018-Apr-21 03:18N 37°08' E 023°49'  
2018-Apr-18 19:15N 44°27' E 014°05'1912.5
2018-Apr-18 17:44N 44°45' E 014°06'35 0.9
2018-Apr-17 01:23N 45°19' E 014°24'25 8.9
2018-Apr-16 22:37N 44°55' E 014°14'110.3
2018-Apr-16 22:30N 44°54' E 014°13'510.4
2018-Apr-16 22:00N 44°50' E 014°09'612.2
2018-Apr-16 21:30N 44°45' E 014°04'511.0
2018-Apr-16 21:01N 44°41' E 013°58'612.5
2018-Apr-16 20:31N 44°41' E 013°49'612.4
2018-Apr-16 20:00N 44°41' E 013°40'612.4
2018-Apr-16 19:30N 44°42' E 013°31'611.3
2018-Apr-16 19:00N 44°46' E 013°26'612.4
2018-Apr-16 18:31N 44°51' E 013°21'612.4
2018-Apr-16 18:01N 44°56' E 013°17'612.4
2018-Apr-16 17:30N 45°01' E 013°12'612.6
2018-Apr-16 17:00N 45°06' E 013°07'612.3
2018-Apr-16 16:30N 45°12' E 013°04'612.6
2018-Apr-16 16:00N 45°19' E 013°02'612.3
2018-Apr-16 15:31N 45°25' E 013°02'612.4
2018-Apr-16 15:01N 45°30' E 013°07'713.8
2018-Apr-16 14:30N 45°33' E 013°16'713.8
2018-Apr-16 14:00N 45°35' E 013°25'714.3
2018-Apr-16 13:30N 45°38' E 013°34'713.2
2018-Apr-16 13:00N 45°39' E 013°44'1 2.8
2018-Apr-16 12:30N 45°40' E 013°46'0 0.0
2018-Apr-16 11:57N 45°40' E 013°46'0 0.0
2018-Apr-16 11:27N 45°40' E 013°46'0 0.0
2018-Apr-16 10:54N 45°40' E 013°46'0 0.0
2018-Apr-16 10:30N 45°40' E 013°46'0 0.0
2018-Apr-16 10:00N 45°40' E 013°46'0 0.0
2018-Apr-16 09:30N 45°40' E 013°46'0 0.0
2018-Apr-16 09:00N 45°40' E 013°46'0 0.0
2018-Apr-16 08:30N 45°40' E 013°46'0 0.0
2018-Apr-16 07:54N 45°40' E 013°46'0 0.0
2018-Apr-16 07:30N 45°40' E 013°46'0 0.0
2018-Apr-16 06:51N 45°40' E 013°46'0 0.0
2018-Apr-16 06:21N 45°40' E 013°46'0 0.0
2018-Apr-16 06:00N 45°40' E 013°46'0 0.0
2018-Apr-16 05:30N 45°40' E 013°46'0 0.0
2018-Apr-16 04:51N 45°40' E 013°46'0 0.0
2018-Apr-16 04:24N 45°40' E 013°46'0 0.0
2018-Apr-16 03:57N 45°40' E 013°46'0 0.0
2018-Apr-16 03:27N 45°40' E 013°46'0 0.0
2018-Apr-16 03:00N 45°40' E 013°46'0 0.0
2018-Apr-16 02:30N 45°40' E 013°46'0 0.0
2018-Apr-16 01:57N 45°40' E 013°46'0 0.0
2018-Apr-16 01:18N 45°40' E 013°46'0 0.0
2018-Apr-16 00:57N 45°40' E 013°46'0 0.0
2018-Apr-16 00:30N 45°40' E 013°46'0 0.0
2018-Apr-15 23:57N 45°40' E 013°46'0 0.0
2018-Apr-15 23:30N 45°40' E 013°46'0 0.0
2018-Apr-15 23:00N 45°40' E 013°46'0 0.0
2018-Apr-15 22:27N 45°40' E 013°46'0 0.0
2018-Apr-15 22:00N 45°40' E 013°46'0 0.0
2018-Apr-15 21:24N 45°40' E 013°46'0 0.0
2018-Apr-15 21:00N 45°40' E 013°46'0 0.0
2018-Apr-15 20:27N 45°40' E 013°46'0 0.0
2018-Apr-15 19:57N 45°40' E 013°46'0 0.0
2018-Apr-15 19:30N 45°40' E 013°46'0 0.0
2018-Apr-15 18:57N 45°40' E 013°46'0 0.0
2018-Apr-15 18:30N 45°40' E 013°46'0 0.0
2018-Apr-15 18:00N 45°40' E 013°46'0 0.0
2018-Apr-15 17:27N 45°40' E 013°46'0 0.0
2018-Apr-15 17:00N 45°40' E 013°46'0 0.0
2018-Apr-15 16:30N 45°40' E 013°46'0 0.0
2018-Apr-15 16:00N 45°40' E 013°46'0 0.0
2018-Apr-15 15:30N 45°40' E 013°46'0 0.0
2018-Apr-15 15:00N 45°40' E 013°46'0 0.0
2018-Apr-15 14:30N 45°40' E 013°46'0 0.0
2018-Apr-15 14:00N 45°40' E 013°46'0 0.0
2018-Apr-15 13:24N 45°40' E 013°46'0 0.0
2018-Apr-15 13:00N 45°40' E 013°46'0 0.0
2018-Apr-15 12:30N 45°40' E 013°46'0 0.0
2018-Apr-15 11:54N 45°40' E 013°46'0 0.0
2018-Apr-15 11:27N 45°40' E 013°46'0 0.0
2018-Apr-15 10:51N 45°40' E 013°46'0 0.0
2018-Apr-15 10:30N 45°40' E 013°46'0 0.0
2018-Apr-15 09:57N 45°40' E 013°46'0 0.0
2018-Apr-15 09:30N 45°40' E 013°46'0 0.0
2018-Apr-15 08:57N 45°40' E 013°46'0 0.0
2018-Apr-15 08:30N 45°40' E 013°46'0 0.0
2018-Apr-15 07:48N 45°40' E 013°46'0 0.0
2018-Apr-15 07:30N 45°40' E 013°46'0 0.0
2018-Apr-15 07:00N 45°40' E 013°46'0 0.0
2018-Apr-15 06:27N 45°40' E 013°46'0 0.0
2018-Apr-15 06:00N 45°40' E 013°46'0 0.0
2018-Apr-15 05:30N 45°40' E 013°46'0 0.0
2018-Apr-15 04:45N 45°40' E 013°46'0 0.0
2018-Apr-15 04:27N 45°40' E 013°46'0 0.0
2018-Apr-15 04:00N 45°40' E 013°46'0 0.0
2018-Apr-15 03:27N 45°40' E 013°46'0 0.0
2018-Apr-15 02:57N 45°40' E 013°46'0 0.0
2018-Apr-15 02:24N 45°40' E 013°46'0 0.0
2018-Apr-15 02:00N 45°40' E 013°46'0 0.0
2018-Apr-15 01:30N 45°40' E 013°46'0 0.0
2018-Apr-15 01:00N 45°40' E 013°46'0 0.0
2018-Apr-15 00:30N 45°40' E 013°46'0 0.0
2018-Apr-15 00:00N 45°40' E 013°46'0 0.0
2018-Apr-14 23:30N 45°40' E 013°46'0 0.0
2018-Apr-14 23:00N 45°40' E 013°46'0 0.0
2018-Apr-14 22:27N 45°40' E 013°46'0 0.0
2018-Apr-14 21:57N 45°40' E 013°46'0 0.0
2018-Apr-14 21:27N 45°40' E 013°46'0 0.0
2018-Apr-14 21:00N 45°40' E 013°46'0 0.0
2018-Apr-14 20:15N 45°40' E 013°46'0 0.0
2018-Apr-14 19:54N 45°40' E 013°46'0 0.0
2018-Apr-14 19:30N 45°40' E 013°46'0 0.0
2018-Apr-14 19:00N 45°40' E 013°46'0 0.0
2018-Apr-14 18:30N 45°40' E 013°46'0 0.0
2018-Apr-14 18:00N 45°40' E 013°46'0 0.0
2018-Apr-14 17:24N 45°40' E 013°46'0 0.0
2018-Apr-14 17:00N 45°40' E 013°46'0 0.0
2018-Apr-14 16:30N 45°40' E 013°46'0 0.0
2018-Apr-14 15:54N 45°40' E 013°46'0 0.0
2018-Apr-14 15:30N 45°40' E 013°46'0 0.0
2018-Apr-14 15:00N 45°40' E 013°46'0 0.0
2018-Apr-14 14:30N 45°40' E 013°46'0 0.0
2018-Apr-14 13:54N 45°40' E 013°46'0 0.0
2018-Apr-14 13:27N 45°40' E 013°46'0 0.0
2018-Apr-14 12:54N 45°40' E 013°46'0 0.0
2018-Apr-14 12:30N 45°40' E 013°46'0 0.0
2018-Apr-14 12:00N 45°40' E 013°46'0 0.0
2018-Apr-14 11:24N 45°40' E 013°46'0 0.0
2018-Apr-14 11:00N 45°40' E 013°46'0 0.0
2018-Apr-14 10:30N 45°40' E 013°46'0 0.0
2018-Apr-14 10:00N 45°40' E 013°46'0 0.0
2018-Apr-14 09:30N 45°40' E 013°46'  

Dump ship's entire track history